Time;durP1;ratioP1;P1;durP2;ratioP2;P2;SDS_P1;SDS_P2;PMS_P1;PMS_P2;Temp;Humidity;BMP_temperature;BMP_pressure;BME280_temperature;BME280_humidity;BME280_pressure;Samples;Min_cycle;Max_cycle;Signal;HPM_P1;HPM_P2
2023/08/22 00:00:07;;;;;;;1.05;0.77;;;28.00;60.20;;;;;;5072248;28;20194;-84
2023/08/22 00:02:38;;;;;;;1.73;0.82;;;28.00;60.50;;;;;;5073321;28;20397;-84
2023/08/22 00:05:07;;;;;;;0.82;0.60;;;28.00;60.70;;;;;;5071213;28;20213;-84
2023/08/22 00:07:36;;;;;;;0.40;0.40;;;27.90;60.80;;;;;;5072198;28;20225;-85
2023/08/22 00:10:05;;;;;;;1.17;0.90;;;27.90;61.20;;;;;;5072973;28;20218;-84
2023/08/22 00:12:35;;;;;;;0.90;0.40;;;27.90;61.30;;;;;;5075092;28;20198;-84
2023/08/22 00:15:08;;;;;;;0.95;0.65;;;27.90;61.60;;;;;;5070447;28;20256;-84
2023/08/22 00:17:38;;;;;;;0.50;0.50;;;27.80;61.70;;;;;;5072340;28;22276;-84
2023/08/22 00:20:08;;;;;;;4.18;1.20;;;27.80;62.20;;;;;;5072070;28;20217;-84
2023/08/22 00:22:37;;;;;;;10.63;0.93;;;27.80;62.30;;;;;;5074886;28;20288;-84
2023/08/22 00:25:07;;;;;;;0.68;0.68;;;27.70;62.30;;;;;;5074646;28;21536;-84
2023/08/22 00:27:36;;;;;;;0.70;0.70;;;27.80;62.50;;;;;;5074513;28;20297;-84
2023/08/22 00:30:07;;;;;;;1.63;1.05;;;27.70;62.60;;;;;;5070395;28;20260;-83
2023/08/22 00:32:36;;;;;;;0.50;0.45;;;27.70;62.90;;;;;;5074332;28;20194;-85
2023/08/22 00:35:06;;;;;;;0.68;0.68;;;27.70;63.20;;;;;;5072510;28;20327;-85
2023/08/22 00:37:35;;;;;;;0.47;0.45;;;27.70;63.40;;;;;;5093212;28;20225;-85
2023/08/22 00:40:05;;;;;;;1.40;1.10;;;27.60;63.40;;;;;;5070613;28;20285;-84
2023/08/22 00:42:34;;;;;;;0.40;0.40;;;27.60;63.80;;;;;;5077950;28;20560;-85
2023/08/22 00:45:03;;;;;;;0.85;0.65;;;27.60;64.50;;;;;;5073172;28;20879;-84
2023/08/22 00:47:32;;;;;;;0.60;0.60;;;27.50;64.70;;;;;;5073358;28;20227;-85
2023/08/22 00:50:04;;;;;;;0.32;0.30;;;27.40;64.70;;;;;;5069395;28;20214;-85
2023/08/22 00:52:33;;;;;;;0.85;0.80;;;27.40;64.60;;;;;;5074395;28;20289;-84
2023/08/22 00:55:01;;;;;;;0.70;0.57;;;27.40;64.50;;;;;;5075814;28;20760;-86
2023/08/22 00:57:30;;;;;;;0.50;0.50;;;27.40;64.50;;;;;;5080172;28;20205;-85
2023/08/22 01:00:02;;;;;;;0.85;0.82;;;27.40;64.50;;;;;;5078625;28;20618;-83
2023/08/22 01:02:30;;;;;;;1.52;1.00;;;27.30;64.50;;;;;;5081915;28;20248;-85
2023/08/22 01:04:59;;;;;;;0.75;0.75;;;27.30;64.60;;;;;;5078634;28;20201;-84
2023/08/22 01:07:35;;;;;;;0.73;0.63;;;27.30;64.80;;;;;;5081357;28;20194;-83
2023/08/22 01:10:10;;;;;;;0.32;0.32;;;27.30;65.10;;;;;;5076971;28;20595;-86
2023/08/22 01:12:46;;;;;;;0.70;0.70;;;27.20;65.10;;;;;;5078568;28;20179;-84
2023/08/22 01:15:21;;;;;;;1.63;1.30;;;27.30;65.60;;;;;;5076693;28;20327;-85
2023/08/22 01:17:50;;;;;;;0.50;0.50;;;27.20;65.60;;;;;;5077272;28;20290;-85
2023/08/22 01:20:19;;;;;;;1.15;0.90;;;27.20;65.90;;;;;;5077597;28;20210;-85
2023/08/22 01:22:50;;;;;;;0.45;0.45;;;27.20;65.80;;;;;;5079816;28;20743;-85
2023/08/22 01:25:18;;;;;;;0.63;0.57;;;27.10;65.60;;;;;;5076149;28;20197;-84
2023/08/22 01:27:58;;;;;;;0.95;0.82;;;27.10;65.80;;;;;;5078064;28;20577;-84
2023/08/22 01:30:38;;;;;;;0.43;0.43;;;27.10;65.80;;;;;;5076171;28;20221;-85
2023/08/22 01:33:13;;;;;;;0.80;0.52;;;27.10;65.90;;;;;;5078456;28;20534;-85
2023/08/22 01:35:47;;;;;;;0.60;0.60;;;27.00;66.10;;;;;;5075230;28;20193;-84
2023/08/22 01:38:19;;;;;;;0.63;0.63;;;27.10;66.30;;;;;;5080251;28;20197;-85
2023/08/22 01:40:48;;;;;;;0.85;0.75;;;27.10;66.60;;;;;;5073735;28;20198;-85
2023/08/22 01:43:18;;;;;;;1.33;1.23;;;27.00;66.70;;;;;;5077204;28;20198;-85
2023/08/22 01:45:47;;;;;;;1.60;0.82;;;27.00;66.90;;;;;;5074087;28;20190;-85
2023/08/22 01:48:16;;;;;;;0.40;0.40;;;26.90;66.90;;;;;;5090689;28;20847;-84
2023/08/22 01:50:45;;;;;;;2.47;1.15;;;26.90;67.10;;;;;;5080031;28;20246;-85
2023/08/22 01:53:14;;;;;;;0.65;0.55;;;26.90;67.10;;;;;;5078054;28;20194;-85
2023/08/22 01:55:44;;;;;;;0.47;0.47;;;26.90;67.10;;;;;;5077903;28;20209;-83
2023/08/22 01:58:14;;;;;;;0.60;0.60;;;26.90;67.10;;;;;;5078739;28;20194;-85
2023/08/22 02:00:43;;;;;;;0.82;0.63;;;26.80;67.00;;;;;;5075623;28;20194;-85
2023/08/22 02:03:13;;;;;;;0.65;0.55;;;26.80;66.90;;;;;;5075653;28;20193;-85
2023/08/22 02:05:41;;;;;;;1.33;0.77;;;26.80;67.00;;;;;;5075240;28;20308;-83
2023/08/22 02:08:10;;;;;;;1.10;0.80;;;26.70;66.90;;;;;;5076505;28;20353;-85
2023/08/22 02:10:38;;;;;;;1.13;1.02;;;26.80;66.90;;;;;;5076030;28;20748;-83
2023/08/22 02:13:09;;;;;;;1.40;0.95;;;26.80;67.00;;;;;;5079754;28;20721;-86
2023/08/22 02:15:38;;;;;;;0.50;0.50;;;26.80;67.10;;;;;;5075773;28;20189;-84
2023/08/22 02:18:08;;;;;;;0.20;0.20;;;26.70;67.00;;;;;;5075851;28;20257;-85
2023/08/22 02:20:37;;;;;;;0.50;0.50;;;26.80;67.10;;;;;;5077217;28;20204;-85
2023/08/22 02:23:06;;;;;;;0.90;0.68;;;26.70;67.10;;;;;;5075021;28;20347;-85
2023/08/22 02:25:35;;;;;;;0.65;0.57;;;26.70;67.30;;;;;;5076061;28;20243;-84
2023/08/22 02:28:04;;;;;;;0.40;0.40;;;26.70;67.30;;;;;;5076967;28;20568;-84
2023/08/22 02:30:35;;;;;;;2.05;0.85;;;26.70;67.30;;;;;;5077838;28;20222;-84
2023/08/22 02:33:04;;;;;;;0.60;0.40;;;26.70;67.30;;;;;;5065709;28;20290;-83
2023/08/22 02:35:34;;;;;;;0.50;0.50;;;26.70;67.30;;;;;;5072840;28;20229;-85
2023/08/22 02:38:03;;;;;;;0.35;0.35;;;26.70;67.30;;;;;;5077677;28;20252;-85
2023/08/22 02:40:31;;;;;;;0.88;0.60;;;26.70;67.30;;;;;;5077604;28;20205;-85
2023/08/22 02:43:00;;;;;;;0.30;0.30;;;26.70;67.30;;;;;;5081978;28;20775;-85
2023/08/22 02:45:28;;;;;;;2.22;0.68;;;26.70;67.30;;;;;;5077944;28;20198;-84
2023/08/22 02:47:58;;;;;;;1.27;0.63;;;26.70;67.30;;;;;;5080131;28;20201;-84
2023/08/22 02:50:27;;;;;;;2.85;0.52;;;26.70;67.30;;;;;;5080298;28;20197;-85
2023/08/22 02:52:56;;;;;;;0.60;0.47;;;26.70;67.30;;;;;;5079761;28;20198;-85
2023/08/22 02:55:25;;;;;;;3.60;0.82;;;26.70;67.40;;;;;;5076731;28;20256;-83
2023/08/22 02:57:53;;;;;;;0.73;0.52;;;26.70;67.60;;;;;;5075291;28;20661;-83
2023/08/22 03:00:22;;;;;;;0.70;0.57;;;26.70;67.60;;;;;;5077110;28;20233;-84
2023/08/22 03:02:51;;;;;;;0.40;0.40;;;26.70;67.90;;;;;;5079189;28;20205;-83
2023/08/22 03:05:21;;;;;;;0.88;0.85;;;26.70;67.70;;;;;;5078788;28;20535;-85
2023/08/22 03:07:50;;;;;;;1.75;0.85;;;26.70;67.70;;;;;;5080820;28;20197;-85
2023/08/22 03:10:20;;;;;;;1.00;0.80;;;26.70;67.70;;;;;;5079069;28;20499;-84
2023/08/22 03:12:50;;;;;;;1.17;1.08;;;26.70;67.80;;;;;;5079537;28;20225;-85
2023/08/22 03:15:21;;;;;;;1.48;0.68;;;26.70;67.80;;;;;;5079611;28;20197;-84
2023/08/22 03:17:50;;;;;;;2.75;0.88;;;26.70;68.00;;;;;;5081338;28;20230;-85
2023/08/22 03:20:19;;;;;;;1.30;1.10;;;26.70;68.00;;;;;;5082119;28;20201;-83
2023/08/22 03:22:49;;;;;;;0.98;0.60;;;26.70;68.30;;;;;;5077671;28;20191;-84
2023/08/22 03:25:17;;;;;;;0.57;0.57;;;26.60;68.00;;;;;;5077967;28;20210;-85
2023/08/22 03:27:46;;;;;;;1.02;0.70;;;26.60;68.10;;;;;;5079824;28;20198;-83
2023/08/22 03:30:15;;;;;;;0.60;0.60;;;26.60;68.10;;;;;;5082448;28;20202;-85
2023/08/22 03:32:44;;;;;;;0.30;0.30;;;26.60;68.10;;;;;;5080563;28;20273;-84
2023/08/22 03:35:12;;;;;;;0.90;0.73;;;26.60;68.10;;;;;;5078146;28;20276;-84
2023/08/22 03:37:41;;;;;;;1.25;0.82;;;26.60;68.10;;;;;;5078011;28;20199;-84
2023/08/22 03:40:12;;;;;;;0.65;0.50;;;26.60;68.20;;;;;;5080202;28;20224;-84
2023/08/22 03:42:41;;;;;;;0.65;0.65;;;26.60;68.20;;;;;;5082298;28;20198;-85
2023/08/22 03:45:11;;;;;;;0.40;0.40;;;26.60;68.30;;;;;;5078800;28;20198;-85
2023/08/22 03:47:39;;;;;;;0.55;0.40;;;26.60;69.10;;;;;;5075977;28;20198;-85
2023/08/22 03:50:09;;;;;;;1.15;0.80;;;26.60;68.30;;;;;;5079489;28;20300;-85
2023/08/22 03:52:38;;;;;;;1.00;0.77;;;26.60;68.30;;;;;;5075334;28;20217;-84
2023/08/22 03:55:07;;;;;;;0.82;0.82;;;26.60;68.30;;;;;;5074218;28;20655;-84
2023/08/22 03:57:41;;;;;;;7.85;0.82;;;26.60;68.30;;;;;;5076736;28;20262;-84
2023/08/22 04:00:12;;;;;;;0.88;0.85;;;26.60;68.30;;;;;;5081494;28;20198;-86
2023/08/22 04:02:40;;;;;;;2.65;0.90;;;26.60;68.30;;;;;;5080734;28;20222;-85
2023/08/22 04:05:09;;;;;;;0.85;0.60;;;26.60;68.30;;;;;;5080723;28;20263;-85
2023/08/22 04:07:38;;;;;;;3.08;1.08;;;26.60;68.40;;;;;;5084213;28;20190;-85
2023/08/22 04:10:10;;;;;;;1.95;1.20;;;26.60;68.40;;;;;;5080401;28;20193;-83
2023/08/22 04:12:44;;;;;;;1.05;0.50;;;26.60;68.40;;;;;;5076990;28;20297;-84
2023/08/22 04:15:13;;;;;;;0.68;0.57;;;26.60;68.40;;;;;;5076859;28;20201;-84
2023/08/22 04:17:42;;;;;;;2.30;0.50;;;26.60;68.40;;;;;;5078101;28;20226;-84
2023/08/22 04:20:15;;;;;;;1.05;0.43;;;26.60;68.40;;;;;;5077109;28;20205;-84
2023/08/22 04:22:44;;;;;;;0.70;0.70;;;26.60;68.50;;;;;;5079292;28;20193;-85
2023/08/22 04:25:13;;;;;;;1.40;1.30;;;26.60;68.40;;;;;;5079840;28;20201;-84
2023/08/22 04:27:43;;;;;;;2.05;1.30;;;26.70;68.50;;;;;;5079337;28;20534;-84
2023/08/22 04:30:15;;;;;;;2.17;1.10;;;26.70;68.50;;;;;;5071885;28;20181;-84
2023/08/22 04:32:45;;;;;;;2.13;1.13;;;26.70;68.50;;;;;;5072497;28;20217;-84
2023/08/22 04:35:14;;;;;;;1.55;1.20;;;26.70;68.50;;;;;;5079365;28;20189;-85
2023/08/22 04:37:42;;;;;;;0.40;0.40;;;26.70;68.50;;;;;;5079394;28;20198;-85
2023/08/22 04:40:12;;;;;;;0.45;0.45;;;26.70;68.50;;;;;;5085436;28;20198;-84
2023/08/22 04:42:40;;;;;;;0.82;0.82;;;26.70;68.60;;;;;;5090245;28;20201;-84
2023/08/22 04:45:13;;;;;;;1.02;0.70;;;26.80;68.70;;;;;;5084059;28;20198;-84
2023/08/22 04:47:42;;;;;;;0.73;0.73;;;26.80;68.70;;;;;;5083189;28;20185;-84
2023/08/22 04:50:13;;;;;;;0.40;0.40;;;26.80;68.70;;;;;;5078948;28;20232;-84
2023/08/22 04:52:42;;;;;;;0.47;0.47;;;26.80;68.60;;;;;;5082401;28;20214;-84
2023/08/22 04:55:10;;;;;;;0.57;0.50;;;26.90;68.70;;;;;;5083841;28;20190;-84
2023/08/22 04:57:39;;;;;;;1.00;0.40;;;26.90;68.80;;;;;;5083415;28;20186;-84
2023/08/22 05:00:11;;;;;;;0.98;0.85;;;26.90;68.70;;;;;;5084992;28;20643;-84
2023/08/22 05:02:39;;;;;;;0.80;0.80;;;27.00;68.90;;;;;;5082023;28;20206;-84
2023/08/22 05:05:09;;;;;;;0.82;0.60;;;27.00;69.10;;;;;;5082007;28;20280;-84
2023/08/22 05:07:41;;;;;;;0.75;0.75;;;27.00;69.20;;;;;;5084983;28;20194;-85
2023/08/22 05:10:12;;;;;;;1.48;0.38;;;27.10;69.30;;;;;;5083859;28;20186;-84
2023/08/22 05:12:40;;;;;;;1.23;0.93;;;27.10;69.30;;;;;;5079125;28;20224;-84
2023/08/22 05:15:11;;;;;;;1.40;0.95;;;27.10;69.20;;;;;;5080882;28;20198;-91
2023/08/22 05:17:40;;;;;;;1.23;1.08;;;27.10;69.10;;;;;;5080840;28;20256;-83
2023/08/22 05:20:13;;;;;;;0.65;0.57;;;27.20;69.10;;;;;;5075730;28;20214;-85
2023/08/22 05:22:42;;;;;;;2.58;0.73;;;27.20;69.20;;;;;;5083242;28;20205;-83
2023/08/22 05:25:11;;;;;;;1.23;1.13;;;27.20;69.20;;;;;;5079024;28;20191;-84
2023/08/22 05:27:40;;;;;;;0.50;0.35;;;27.30;69.50;;;;;;5079598;28;20645;-85
2023/08/22 05:30:11;;;;;;;1.95;1.40;;;27.30;69.50;;;;;;5076813;28;20194;-84
2023/08/22 05:32:40;;;;;;;1.83;0.88;;;27.40;69.60;;;;;;5081320;28;20563;-83
2023/08/22 05:35:09;;;;;;;0.50;0.50;;;27.40;69.60;;;;;;5091031;28;20668;-84
2023/08/22 05:37:37;;;;;;;1.30;0.95;;;27.50;69.80;;;;;;5084468;28;20199;-84
2023/08/22 05:40:08;;;;;;;1.67;1.25;;;27.50;69.70;;;;;;5079726;28;20660;-84
2023/08/22 05:42:37;;;;;;;1.58;1.45;;;27.60;69.70;;;;;;5081848;28;20202;-84
2023/08/22 05:45:07;;;;;;;1.75;1.08;;;27.60;69.70;;;;;;5077104;28;20198;-84
2023/08/22 05:47:38;;;;;;;0.80;0.80;;;27.60;69.60;;;;;;5078974;28;20225;-84
2023/08/22 05:50:08;;;;;;;1.15;0.98;;;27.70;69.50;;;;;;5079782;28;20217;-84
2023/08/22 05:52:37;;;;;;;0.88;0.80;;;27.80;69.50;;;;;;5084784;28;20222;-84
2023/08/22 05:55:06;;;;;;;1.58;1.10;;;27.80;69.80;;;;;;5080839;28;20309;-85
2023/08/22 05:57:35;;;;;;;2.30;1.48;;;27.90;69.90;;;;;;5084046;28;20193;-84
2023/08/22 06:00:05;;;;;;;1.33;0.98;;;27.90;70.50;;;;;;5081150;28;20193;-84
2023/08/22 06:02:33;;;;;;;2.78;1.35;;;28.00;70.40;;;;;;5088238;28;20204;-83
2023/08/22 06:05:06;;;;;;;1.92;1.35;;;28.10;70.20;;;;;;5092503;28;20198;-85
2023/08/22 06:07:35;;;;;;;1.95;1.17;;;28.10;70.50;;;;;;5083652;28;20186;-85
2023/08/22 06:10:04;;;;;;;13.85;1.35;;;28.20;70.40;;;;;;5078091;28;20204;-86
2023/08/22 06:12:33;;;;;;;1.20;1.10;;;28.30;70.50;;;;;;5078657;28;20206;-85
2023/08/22 06:15:02;;;;;;;2.80;1.85;;;28.30;70.50;;;;;;5079211;28;20194;-86
2023/08/22 06:17:30;;;;;;;2.92;1.60;;;28.40;70.40;;;;;;5086736;28;21546;-88
2023/08/22 06:19:59;;;;;;;1.17;0.80;;;28.50;70.30;;;;;;5085753;28;20280;-90
2023/08/22 06:22:33;;;;;;;0.80;0.60;;;28.50;70.00;;;;;;5087593;28;20191;-88
2023/08/22 06:25:06;;;;;;;1.85;1.35;;;28.60;70.70;;;;;;5083144;28;20194;-91
2023/08/22 06:27:35;;;;;;;1.83;1.15;;;28.80;69.80;;;;;;5073365;28;20197;-84
2023/08/22 06:30:05;;;;;;;1.02;1.02;;;28.90;69.70;;;;;;5089787;28;20663;-83
2023/08/22 06:32:34;;;;;;;1.73;1.05;;;28.90;69.50;;;;;;5095319;28;20193;-83
2023/08/22 06:35:05;;;;;;;2.05;1.05;;;29.00;69.20;;;;;;5081626;28;20194;-85
2023/08/22 06:37:35;;;;;;;1.15;1.00;;;29.10;69.10;;;;;;5080059;28;20194;-84
2023/08/22 06:40:07;;;;;;;0.63;0.63;;;29.20;68.90;;;;;;5079920;28;20274;-83
2023/08/22 06:42:36;;;;;;;1.05;0.98;;;29.30;68.70;;;;;;5081836;28;20562;-82
2023/08/22 06:45:05;;;;;;;0.88;0.80;;;29.40;68.50;;;;;;5081357;28;20194;-86
2023/08/22 06:47:34;;;;;;;1.55;1.23;;;29.50;68.30;;;;;;5085930;28;20194;-85
2023/08/22 06:50:03;;;;;;;3.17;1.27;;;29.60;68.10;;;;;;5083977;28;20250;-85
2023/08/22 06:52:31;;;;;;;1.52;1.27;;;29.70;68.00;;;;;;5083544;28;20186;-86
2023/08/22 06:55:02;;;;;;;2.33;1.13;;;29.80;67.80;;;;;;5079495;28;20256;-87
2023/08/22 06:57:30;;;;;;;1.50;1.40;;;29.90;67.30;;;;;;5080617;28;20680;-85
2023/08/22 07:00:10;;;;;;;2.08;1.42;;;30.00;67.00;;;;;;5083115;28;20659;-85
2023/08/22 07:02:39;;;;;;;1.23;1.02;;;30.00;66.40;;;;;;5080822;28;20196;-87
2023/08/22 07:05:08;;;;;;;0.88;0.60;;;30.10;66.20;;;;;;5085808;28;20687;-92
2023/08/22 07:07:39;;;;;;;2.60;1.55;;;30.20;66.30;;;;;;5088935;28;20209;-86
2023/08/22 07:10:11;;;;;;;0.80;0.80;;;30.30;66.00;;;;;;5079492;28;20549;-89
2023/08/22 07:12:45;;;;;;;1.08;0.93;;;30.40;66.00;;;;;;5078925;28;20243;-84
2023/08/22 07:15:14;;;;;;;2.15;1.25;;;30.50;65.00;;;;;;5075528;28;20618;-85
2023/08/22 07:17:42;;;;;;;2.20;1.00;;;30.60;65.10;;;;;;5079076;28;20704;-85
2023/08/22 07:20:14;;;;;;;1.92;1.42;;;30.80;65.10;;;;;;5073419;28;20182;-86
2023/08/22 07:22:42;;;;;;;1.95;1.13;;;30.80;65.00;;;;;;5077265;28;20212;-84
2023/08/22 07:25:13;;;;;;;1.48;1.00;;;30.90;64.90;;;;;;5079590;28;20210;-86
2023/08/22 07:27:41;;;;;;;1.85;1.65;;;31.00;64.70;;;;;;5076529;28;20195;-85
2023/08/22 07:30:12;;;;;;;2.55;1.35;;;31.00;63.70;;;;;;5078996;28;20194;-85
2023/08/22 07:32:41;;;;;;;2.80;1.27;;;31.10;63.20;;;;;;5077061;28;20724;-86
2023/08/22 07:35:10;;;;;;;1.40;1.25;;;31.20;63.00;;;;;;5076185;28;20308;-84
2023/08/22 07:37:40;;;;;;;2.65;1.40;;;31.20;62.40;;;;;;5077758;28;20644;-86
2023/08/22 07:40:09;;;;;;;1.30;0.85;;;31.40;62.80;;;;;;5081835;28;20194;-86
2023/08/22 07:42:39;;;;;;;1.50;1.05;;;31.40;62.70;;;;;;5089151;28;20201;-86
2023/08/22 07:45:10;;;;;;;1.83;1.30;;;31.50;62.30;;;;;;5080500;28;20699;-86
2023/08/22 07:47:38;;;;;;;1.27;1.17;;;31.60;62.20;;;;;;5078600;28;20226;-85
2023/08/22 07:50:08;;;;;;;1.17;1.08;;;31.60;61.30;;;;;;5079437;28;20224;-86
2023/08/22 07:52:36;;;;;;;1.00;0.60;;;31.70;61.50;;;;;;5081940;28;20210;-87
2023/08/22 07:55:07;;;;;;;1.55;1.45;;;31.70;61.60;;;;;;5079578;28;20213;-84
2023/08/22 07:57:36;;;;;;;1.10;0.95;;;31.80;61.40;;;;;;5081585;28;20205;-85
2023/08/22 08:00:09;;;;;;;1.00;0.80;;;31.90;61.40;;;;;;5078874;28;20217;-86
2023/08/22 08:02:38;;;;;;;1.77;1.27;;;31.90;61.00;;;;;;5081617;28;20181;-87
2023/08/22 08:05:08;;;;;;;0.88;0.77;;;32.00;60.80;;;;;;5081620;28;20709;-89
2023/08/22 08:07:37;;;;;;;1.58;1.38;;;32.10;60.50;;;;;;5090512;28;20186;-88
2023/08/22 08:10:07;;;;;;;4.60;1.38;;;32.10;60.40;;;;;;5080782;28;20550;-86
2023/08/22 08:12:36;;;;;;;1.35;0.93;;;32.20;59.90;;;;;;5090824;28;20193;-91
2023/08/22 08:15:08;;;;;;;0.65;0.60;;;32.30;60.00;;;;;;5086439;28;20307;-88
2023/08/22 08:17:37;;;;;;;2.78;1.05;;;32.30;60.00;;;;;;5087978;28;20209;-89
2023/08/22 08:20:07;;;;;;;1.10;0.95;;;32.40;59.90;;;;;;5094905;28;20201;-91
2023/08/22 08:22:37;;;;;;;2.25;0.80;;;32.40;59.80;;;;;;5099254;28;20209;-90
2023/08/22 08:25:08;;;;;;;0.77;0.77;;;32.50;59.70;;;;;;5099493;28;20193;-89
2023/08/22 08:27:39;;;;;;;1.80;1.02;;;32.50;59.60;;;;;;5091804;28;20850;-89
2023/08/22 08:30:10;;;;;;;0.82;0.75;;;32.60;59.30;;;;;;5086599;28;20263;-91
2023/08/22 08:32:39;;;;;;;0.60;0.60;;;32.60;58.90;;;;;;5083105;28;20272;-90
2023/08/22 08:35:11;;;;;;;2.05;1.63;;;32.70;58.80;;;;;;5086657;28;20221;-90
2023/08/22 08:37:40;;;;;;;1.08;1.00;;;32.70;58.40;;;;;;5095147;28;20233;-89
2023/08/22 08:40:10;;;;;;;1.27;1.10;;;32.80;57.80;;;;;;5094306;22;20253;-92
2023/08/22 08:42:40;;;;;;;1.17;1.08;;;32.80;57.90;;;;;;5071448;28;20191;-89
2023/08/22 08:45:12;;;;;;;1.30;0.75;;;32.90;57.60;;;;;;5050696;28;20224;-87
2023/08/22 08:47:41;;;;;;;2.60;1.65;;;32.90;57.60;;;;;;5068897;28;20190;-87
2023/08/22 08:50:11;;;;;;;1.23;1.13;;;33.00;57.40;;;;;;5067645;28;20195;-87
2023/08/22 08:52:44;;;;;;;1.33;1.15;;;33.00;57.20;;;;;;5070593;28;20170;-90
2023/08/22 08:55:14;;;;;;;1.60;1.45;;;33.10;57.10;;;;;;5075459;28;20217;-91
2023/08/22 08:57:43;;;;;;;0.90;0.70;;;33.20;57.30;;;;;;5071785;28;20218;-92
2023/08/22 09:00:21;;;;;;;1.35;0.98;;;33.20;57.00;;;;;;5057523;28;20230;-88
2023/08/22 09:02:51;;;;;;;3.30;1.10;;;33.30;56.80;;;;;;5072612;28;20248;-92
2023/08/22 09:05:21;;;;;;;0.77;0.60;;;33.30;56.20;;;;;;5069786;28;20266;-91
2023/08/22 09:07:54;;;;;;;0.82;0.80;;;33.40;56.40;;;;;;5069900;28;20587;-91
2023/08/22 09:10:36;;;;;;;1.73;0.90;;;33.40;56.00;;;;;;5071459;28;20209;-91
2023/08/22 09:13:05;;;;;;;0.88;0.63;;;33.50;56.10;;;;;;5073556;28;20259;-93
2023/08/22 09:15:42;;;;;;;0.65;0.60;;;33.50;55.70;;;;;;5074493;28;20222;-91
2023/08/22 09:18:15;;;;;;;0.77;0.70;;;33.60;55.20;;;;;;5057829;28;233616;-88
2023/08/22 09:20:45;;;;;;;1.40;1.02;;;33.60;55.10;;;;;;5073515;28;20186;-87
2023/08/22 09:23:27;;;;;;;0.98;0.88;;;33.70;54.80;;;;;;5066463;28;20201;-87
2023/08/22 09:26:02;;;;;;;1.13;0.90;;;33.80;54.70;;;;;;5072028;28;20209;-87
2023/08/22 09:28:31;;;;;;;3.15;1.42;;;33.80;54.50;;;;;;5076316;28;20194;-87
2023/08/22 09:31:02;;;;;;;0.50;0.50;;;33.90;54.10;;;;;;5069242;28;20203;-89
2023/08/22 09:33:44;;;;;;;0.55;0.55;;;33.90;54.30;;;;;;5066609;28;20186;-87
2023/08/22 09:36:12;;;;;;;0.63;0.52;;;34.00;54.40;;;;;;5067296;28;20226;-87
2023/08/22 09:38:52;;;;;;;2.35;0.88;;;34.10;54.40;;;;;;5066594;28;20275;-87
2023/08/22 09:41:23;;;;;;;2.97;0.73;;;34.20;53.90;;;;;;5068780;28;20226;-90
2023/08/22 09:44:00;;;;;;;0.75;0.60;;;34.20;53.80;;;;;;5083806;28;20200;-82
2023/08/22 09:46:32;;;;;;;0.95;0.70;;;34.30;53.20;;;;;;5065985;28;21182;-86
2023/08/22 09:49:02;;;;;;;1.08;0.90;;;34.40;53.10;;;;;;5062639;28;20281;-87
2023/08/22 09:51:32;;;;;;;1.17;0.88;;;34.40;53.00;;;;;;5067881;28;20198;-86
2023/08/22 09:54:03;;;;;;;0.77;0.75;;;34.50;52.70;;;;;;5065537;28;20205;-87
2023/08/22 09:56:36;;;;;;;1.08;0.93;;;34.50;52.90;;;;;;5062669;28;20214;-85
2023/08/22 09:59:05;;;;;;;0.50;0.50;;;34.60;53.10;;;;;;5073640;28;20201;-85
2023/08/22 10:01:40;;;;;;;1.52;0.70;;;34.60;53.10;;;;;;5079519;28;20211;-84
2023/08/22 10:04:09;;;;;;;0.75;0.75;;;34.70;52.40;;;;;;5064588;28;20225;-86
2023/08/22 10:06:39;;;;;;;1.45;1.05;;;34.70;52.30;;;;;;5077595;28;20189;-85
2023/08/22 10:09:11;;;;;;;1.10;0.55;;;34.70;52.00;;;;;;5063235;28;20175;-86
2023/08/22 10:11:44;;;;;;;1.65;1.15;;;34.70;52.10;;;;;;5066204;28;20945;-86
2023/08/22 10:14:29;;;;;;;1.98;0.85;;;34.70;52.40;;;;;;5065421;28;20271;-87
2023/08/22 10:17:00;;;;;;;0.60;0.60;;;34.80;53.30;;;;;;5063615;28;20281;-86
2023/08/22 10:19:30;;;;;;;1.10;1.00;;;34.80;52.40;;;;;;5062914;28;20167;-87
2023/08/22 10:22:08;;;;;;;3.72;2.00;;;34.90;52.50;;;;;;5065986;28;20286;-86
2023/08/22 10:24:37;;;;;;;0.60;0.60;;;34.90;52.30;;;;;;5067454;28;20182;-88
2023/08/22 10:27:09;;;;;;;1.13;0.50;;;35.00;51.80;;;;;;5070392;28;20221;-87
2023/08/22 10:29:41;;;;;;;1.70;0.98;;;35.00;51.80;;;;;;5066668;28;20229;-85
2023/08/22 10:32:29;;;;;;;0.60;0.60;;;35.20;51.20;;;;;;5069258;28;20248;-89
2023/08/22 10:35:27;;;;;;;5.78;1.77;;;35.20;51.10;;;;;;5070069;28;20218;-86
2023/08/22 10:37:57;;;;;;;4.60;1.90;;;35.20;51.20;;;;;;5063562;28;20256;-89
2023/08/22 10:40:35;;;;;;;1.95;0.80;;;35.30;51.10;;;;;;5066296;28;20248;-87
2023/08/22 10:43:12;;;;;;;1.05;0.63;;;35.40;51.00;;;;;;5067921;28;20596;-88
2023/08/22 10:45:42;;;;;;;0.70;0.70;;;35.40;50.60;;;;;;5066712;28;20187;-85
2023/08/22 10:48:15;;;;;;;1.45;1.02;;;35.40;50.80;;;;;;5069069;28;20202;-85
2023/08/22 10:50:45;;;;;;;1.67;0.80;;;35.40;50.30;;;;;;5075014;28;20194;-84
2023/08/22 10:53:23;;;;;;;0.90;0.85;;;35.40;50.40;;;;;;5070128;28;22574;-88
2023/08/22 10:55:53;;;;;;;0.80;0.73;;;35.40;50.40;;;;;;5064667;28;20230;-83
2023/08/22 10:58:42;;;;;;;1.52;1.05;;;35.40;50.30;;;;;;5065973;28;20191;-88
2023/08/22 11:01:17;;;;;;;0.60;0.50;;;35.40;50.10;;;;;;5072746;28;20292;-88
2023/08/22 11:03:48;;;;;;;1.17;1.08;;;35.40;50.00;;;;;;5073068;28;21064;-90
2023/08/22 11:06:20;;;;;;;1.13;1.02;;;35.50;50.00;;;;;;5068071;28;20654;-88
2023/08/22 11:08:48;;;;;;;0.57;0.57;;;35.50;49.80;;;;;;5074802;28;20198;-89
2023/08/22 11:11:19;;;;;;;1.10;1.00;;;35.60;50.10;;;;;;5070171;28;20224;-88
2023/08/22 11:13:50;;;;;;;0.73;0.70;;;35.60;50.10;;;;;;5066910;28;20292;-86
2023/08/22 11:16:19;;;;;;;1.20;1.02;;;35.70;49.90;;;;;;5070164;28;20229;-89
2023/08/22 11:18:50;;;;;;;1.77;1.55;;;35.80;49.90;;;;;;5069896;28;20210;-89
2023/08/22 11:21:19;;;;;;;1.60;1.40;;;35.80;49.90;;;;;;5068680;28;20202;-88
2023/08/22 11:23:48;;;;;;;4.15;2.05;;;35.80;49.30;;;;;;5069572;28;20203;-90
2023/08/22 11:26:22;;;;;;;2.80;2.15;;;35.80;49.20;;;;;;5063570;28;20493;-89
2023/08/22 11:28:55;;;;;;;1.98;1.45;;;35.90;49.00;;;;;;5067864;28;20201;-89
2023/08/22 11:31:26;;;;;;;8.07;1.88;;;35.90;49.00;;;;;;5067712;28;20193;-89
2023/08/22 11:33:57;;;;;;;2.55;1.48;;;35.90;49.00;;;;;;5063737;28;20190;-89
2023/08/22 11:36:26;;;;;;;1.20;1.10;;;36.00;49.00;;;;;;5061953;28;20309;-87
2023/08/22 11:38:56;;;;;;;0.70;0.70;;;36.00;48.90;;;;;;5068047;28;20248;-85
2023/08/22 11:41:28;;;;;;;1.88;1.13;;;36.00;48.60;;;;;;5068844;28;20587;-84
2023/08/22 11:44:00;;;;;;;2.70;1.63;;;36.10;48.60;;;;;;5070869;28;20252;-86
2023/08/22 11:46:33;;;;;;;1.55;0.93;;;36.10;48.50;;;;;;5074086;28;20205;-86
2023/08/22 11:49:07;;;;;;;3.55;1.48;;;36.20;48.70;;;;;;5075946;28;20190;-87
2023/08/22 11:51:36;;;;;;;0.70;0.70;;;36.20;48.50;;;;;;5066321;28;20224;-88
2023/08/22 11:54:05;;;;;;;1.50;0.80;;;36.30;48.40;;;;;;5066384;28;20928;-85
2023/08/22 11:56:33;;;;;;;1.13;1.00;;;36.30;48.40;;;;;;5072664;28;20222;-84
2023/08/22 11:59:02;;;;;;;0.50;0.50;;;36.40;48.30;;;;;;5072165;28;20289;-85
2023/08/22 12:01:32;;;;;;;1.25;1.15;;;36.40;48.00;;;;;;5067349;28;20183;-84
2023/08/22 12:04:02;;;;;;;1.05;0.95;;;36.50;48.10;;;;;;5069689;28;20186;-87
2023/08/22 12:06:32;;;;;;;1.30;1.20;;;36.50;47.50;;;;;;5068418;28;20247;-88
2023/08/22 12:09:01;;;;;;;0.93;0.73;;;36.60;47.50;;;;;;5075678;28;20210;-86
2023/08/22 12:11:30;;;;;;;2.83;1.23;;;36.50;47.20;;;;;;5064282;28;20198;-82
2023/08/22 12:13:58;;;;;;;2.03;1.00;;;36.60;47.20;;;;;;5070072;28;20198;-84
2023/08/22 12:16:27;;;;;;;1.20;1.10;;;36.60;46.90;;;;;;5063699;28;20218;-83
2023/08/22 12:18:56;;;;;;;2.58;1.02;;;36.60;47.10;;;;;;5070609;28;20198;-83
2023/08/22 12:21:27;;;;;;;1.85;1.08;;;36.60;47.20;;;;;;5074005;28;20194;-84
2023/08/22 12:23:57;;;;;;;1.95;0.70;;;36.60;47.30;;;;;;5072272;28;20186;-84
2023/08/22 12:26:25;;;;;;;0.57;0.52;;;36.70;47.40;;;;;;5065151;28;20202;-84
2023/08/22 12:28:56;;;;;;;0.70;0.68;;;36.70;47.40;;;;;;5071937;28;20281;-83
2023/08/22 12:31:28;;;;;;;1.52;1.35;;;36.70;47.30;;;;;;5069467;28;20211;-84
2023/08/22 12:33:56;;;;;;;0.95;0.95;;;36.70;46.00;;;;;;5072275;28;20247;-84
2023/08/22 12:36:25;;;;;;;2.20;2.00;;;36.70;46.20;;;;;;5064359;28;20292;-85
2023/08/22 12:38:53;;;;;;;3.75;2.20;;;36.70;46.60;;;;;;5072654;28;20282;-84
2023/08/22 12:41:23;;;;;;;1.73;1.10;;;36.70;45.50;;;;;;5068715;28;20599;-85
2023/08/22 12:43:52;;;;;;;4.15;2.08;;;36.70;45.80;;;;;;5069201;28;20633;-86
2023/08/22 12:46:23;;;;;;;1.80;1.23;;;36.70;46.00;;;;;;5070457;28;20248;-84
2023/08/22 12:48:51;;;;;;;1.45;0.98;;;36.70;46.10;;;;;;5075103;28;20300;-85
2023/08/22 12:51:21;;;;;;;2.08;1.08;;;36.70;46.20;;;;;;5077632;28;20202;-84
2023/08/22 12:53:50;;;;;;;1.40;0.88;;;36.80;46.00;;;;;;5068614;28;20206;-85
2023/08/22 12:56:19;;;;;;;3.17;1.38;;;36.80;46.00;;;;;;5074208;28;20218;-85
2023/08/22 12:58:48;;;;;;;0.95;0.90;;;36.80;45.70;;;;;;5071856;28;20281;-85
2023/08/22 13:01:17;;;;;;;0.43;0.43;;;36.90;45.70;;;;;;5071831;28;20194;-86